createdAt,value
2019-04-01T00:01:19.347Z,6.30
2019-04-01T00:03:47.477Z,7.18
2019-04-01T00:06:15.634Z,7.45
2019-04-01T00:08:43.775Z,4.80
2019-04-01T00:11:12.041Z,5.03
2019-04-01T00:13:40.312Z,2.47
2019-04-01T00:16:08.175Z,2.78
2019-04-01T00:18:36.408Z,2.08
2019-04-01T00:21:04.417Z,5.80
2019-04-01T00:23:32.526Z,3.15
2019-04-01T00:26:00.575Z,5.95
2019-04-01T00:28:28.747Z,12.95
2019-04-01T00:30:56.951Z,5.70
2019-04-01T00:33:25.073Z,3.58
2019-04-01T00:35:53.344Z,3.72
2019-04-01T00:38:21.540Z,5.97
2019-04-01T00:40:49.624Z,4.62
2019-04-01T00:43:43.604Z,1.20
2019-04-01T00:46:11.469Z,3.77
2019-04-01T00:48:39.630Z,8.82
2019-04-01T00:51:07.814Z,5.57
2019-04-01T00:53:35.709Z,5.47
2019-04-01T00:56:03.994Z,3.93
2019-04-01T00:58:32.169Z,2.22
2019-04-01T01:01:00.088Z,7.73
2019-04-01T01:03:28.188Z,6.82
2019-04-01T01:05:56.277Z,1.37
2019-04-01T01:08:24.209Z,3.95
2019-04-01T01:10:52.335Z,4.43
2019-04-01T01:13:20.650Z,3.20
2019-04-01T01:15:48.803Z,9.18
2019-04-01T01:18:17.566Z,1.13
2019-04-01T01:20:45.739Z,3.00
2019-04-01T01:23:14.272Z,4.07
2019-04-01T01:25:44.417Z,3.03
2019-04-01T01:28:13.908Z,3.07
2019-04-01T01:30:42.983Z,2.83
2019-04-01T01:33:12.163Z,1.37
2019-04-01T01:35:40.423Z,3.40
2019-04-01T01:38:09.564Z,0.53
2019-04-01T01:40:37.721Z,4.10
2019-04-01T01:43:05.822Z,5.07
2019-04-01T01:45:34.288Z,1.12
2019-04-01T01:48:02.342Z,6.30
2019-04-01T01:50:30.429Z,2.57
2019-04-01T01:52:58.194Z,3.47
2019-04-01T01:55:26.371Z,7.53
2019-04-01T01:57:54.526Z,2.80
2019-04-01T02:00:22.695Z,7.43
2019-04-01T02:02:50.780Z,3.53
2019-04-01T02:05:19.053Z,5.53
2019-04-01T02:07:46.791Z,1.47
2019-04-01T02:10:14.886Z,8.47
2019-04-01T02:12:42.938Z,3.60
2019-04-01T02:15:12.614Z,1.17
2019-04-01T02:17:40.739Z,5.17
2019-04-01T02:20:08.903Z,2.97
2019-04-01T02:22:37.039Z,4.47
2019-04-01T02:25:05.368Z,4.37
2019-04-01T02:27:33.228Z,6.50
2019-04-01T02:30:01.293Z,6.78
2019-04-01T02:32:29.058Z,6.25
2019-04-01T02:34:57.446Z,2.83
2019-04-01T02:37:25.519Z,3.30
2019-04-01T02:39:53.561Z,2.13
2019-04-01T02:42:22.249Z,1.67
2019-04-01T02:44:50.333Z,2.35
2019-04-01T02:47:18.281Z,4.97
2019-04-01T02:49:46.373Z,4.15
2019-04-01T02:52:14.438Z,4.40
2019-04-01T02:54:42.503Z,3.23
2019-04-01T02:57:10.732Z,5.00
2019-04-01T02:59:38.836Z,4.23
2019-04-01T03:02:08.987Z,3.42
2019-04-01T03:04:37.943Z,5.33
2019-04-01T03:07:06.244Z,5.62
2019-04-01T03:09:34.320Z,1.97
2019-04-01T03:12:03.266Z,7.03
2019-04-01T03:14:31.891Z,5.80
2019-04-01T03:16:59.953Z,2.53
2019-04-01T03:19:28.037Z,6.25
2019-04-01T03:21:55.828Z,2.90
2019-04-01T03:24:24.061Z,4.27
2019-04-01T03:26:52.264Z,3.83
2019-04-01T03:29:20.308Z,2.47
2019-04-01T03:31:48.377Z,6.03
2019-04-01T03:34:16.179Z,6.27
2019-04-01T03:36:44.027Z,3.40
2019-04-01T03:39:12.095Z,3.70
2019-04-01T03:41:40.069Z,4.03
2019-04-01T03:44:08.118Z,4.50
2019-04-01T03:46:36.199Z,6.43
2019-04-01T03:49:05.907Z,6.17
2019-04-01T03:51:34.209Z,2.33
2019-04-01T03:54:02.255Z,3.40
2019-04-01T03:56:30.523Z,5.70
2019-04-01T03:58:58.584Z,1.33
2019-04-01T04:01:30.129Z,3.95
2019-04-01T04:03:54.835Z,2.90
2019-04-01T04:06:22.950Z,6.17
2019-04-01T04:08:50.673Z,5.17
2019-04-01T04:11:18.860Z,5.50
2019-04-01T04:13:48.623Z,7.45
2019-04-01T04:16:16.817Z,6.03
2019-04-01T04:18:45.395Z,7.10
2019-04-01T04:21:13.506Z,4.57
2019-04-01T04:23:41.612Z,8.13
2019-04-01T04:26:09.449Z,2.90
2019-04-01T04:28:37.134Z,4.68
2019-04-01T04:31:04.914Z,5.13
2019-04-01T04:33:33.166Z,10.63
2019-04-01T04:36:01.197Z,13.83
2019-04-01T04:38:28.960Z,7.60
2019-04-01T04:40:57.032Z,2.60
2019-04-01T04:43:25.276Z,7.77
2019-04-01T04:45:52.809Z,3.33
2019-04-01T04:48:20.889Z,5.67
2019-04-01T04:50:49.485Z,6.47
2019-04-01T04:53:17.642Z,5.43
2019-04-01T04:55:45.878Z,7.55
2019-04-01T04:58:13.645Z,5.93
2019-04-01T05:00:41.817Z,4.25
2019-04-01T05:03:10.421Z,5.97
2019-04-01T05:05:38.475Z,3.90
2019-04-01T05:08:06.642Z,3.58
2019-04-01T05:10:34.741Z,5.67
2019-04-01T05:13:02.908Z,3.47
2019-04-01T05:15:30.949Z,5.83
2019-04-01T05:17:58.828Z,5.13
2019-04-01T05:20:26.804Z,6.73
2019-04-01T05:22:54.867Z,3.10
2019-04-01T05:25:23.070Z,9.87
2019-04-01T05:27:51.641Z,6.30
2019-04-01T05:30:19.397Z,8.40
2019-04-01T05:32:47.568Z,6.10
2019-04-01T05:35:15.326Z,4.03
2019-04-01T05:37:43.922Z,9.50
2019-04-01T05:40:12.261Z,3.87
2019-04-01T05:42:40.383Z,7.23
2019-04-01T05:45:08.434Z,3.00
2019-04-01T05:47:48.239Z,6.00
2019-04-01T05:50:16.026Z,9.07
2019-04-01T05:52:44.207Z,7.27
2019-04-01T05:55:11.759Z,6.97
2019-04-01T05:57:39.631Z,7.40
2019-04-01T06:00:07.824Z,3.83
2019-04-01T06:02:35.881Z,2.80
2019-04-01T06:05:04.053Z,4.75
2019-04-01T06:07:32.221Z,6.75
2019-04-01T06:10:00.443Z,4.70
2019-04-01T06:12:28.568Z,3.33
2019-04-01T06:14:57.233Z,7.95
2019-04-01T06:17:24.827Z,5.37
2019-04-01T06:19:52.703Z,8.13
2019-04-01T06:22:20.552Z,6.95
2019-04-01T06:24:48.416Z,5.15
2019-04-01T06:27:16.442Z,5.80
2019-04-01T06:29:44.356Z,5.78
2019-04-01T06:32:12.467Z,6.10
2019-04-01T06:34:52.268Z,10.10
2019-04-01T06:37:08.798Z,4.28
2019-04-01T06:39:37.002Z,3.87
2019-04-01T06:42:07.163Z,9.00
2019-04-01T06:44:32.715Z,2.92
2019-04-01T06:47:00.602Z,8.95
2019-04-01T06:49:28.717Z,8.15
2019-04-01T06:51:56.795Z,9.00
2019-04-01T06:54:25.547Z,9.13
2019-04-01T06:56:53.965Z,10.07
2019-04-01T06:59:22.147Z,6.62
2019-04-01T07:01:50.524Z,4.97
2019-04-01T07:04:18.670Z,4.43
2019-04-01T07:06:46.773Z,7.50
2019-04-01T07:09:14.828Z,2.28
2019-04-01T07:11:43.251Z,10.25
2019-04-01T07:14:11.712Z,4.90
2019-04-01T07:16:40.122Z,6.57
2019-04-01T07:19:07.111Z,8.48
2019-04-01T07:21:34.939Z,7.35
2019-04-01T07:24:03.263Z,4.82
2019-04-01T07:26:31.307Z,6.70
2019-04-01T07:28:59.398Z,3.75
2019-04-01T07:31:29.899Z,7.28
2019-04-01T07:33:57.971Z,6.47
2019-04-01T07:36:25.755Z,2.97
2019-04-01T07:38:54.150Z,6.65
2019-04-01T07:41:22.199Z,4.87
2019-04-01T07:43:50.265Z,6.93
2019-04-01T07:46:18.040Z,3.25
2019-04-01T07:48:46.190Z,4.80
2019-04-01T07:51:14.336Z,4.25
2019-04-01T07:53:42.451Z,7.35
2019-04-01T07:56:11.393Z,3.87
2019-04-01T07:58:39.499Z,4.25
2019-04-01T08:01:07.682Z,4.97
2019-04-01T08:03:35.850Z,6.03
2019-04-01T08:06:03.720Z,4.97
2019-04-01T08:08:32.073Z,6.22
2019-04-01T08:10:59.992Z,6.35
2019-04-01T08:13:27.963Z,5.60
2019-04-01T08:15:56.645Z,9.00
2019-04-01T08:18:24.884Z,4.55
2019-04-01T08:20:52.947Z,6.05
2019-04-01T08:23:21.049Z,5.78
2019-04-01T08:25:49.095Z,7.80
2019-04-01T08:28:16.796Z,5.50
2019-04-01T08:30:44.934Z,4.82
2019-04-01T08:33:12.929Z,6.07
2019-04-01T08:35:41.900Z,7.03
2019-04-01T08:38:10.010Z,6.53
2019-04-01T08:40:38.157Z,7.30
2019-04-01T08:43:06.204Z,6.80
2019-04-01T08:45:34.397Z,4.60
2019-04-01T08:48:02.591Z,4.95
2019-04-01T08:50:30.355Z,5.10
2019-04-01T08:52:58.538Z,7.87
2019-04-01T08:55:26.699Z,6.18
2019-04-01T08:57:54.969Z,7.95
2019-04-01T09:00:22.855Z,6.62
2019-04-01T09:02:50.923Z,3.25
2019-04-01T09:05:18.964Z,3.78
2019-04-01T09:07:47.607Z,8.32
2019-04-01T09:10:15.769Z,4.35
2019-04-01T09:12:43.606Z,4.12
2019-04-01T09:15:11.976Z,7.37
2019-04-01T09:17:40.555Z,4.93
2019-04-01T09:20:08.225Z,7.25
2019-04-01T09:22:36.511Z,6.93
2019-04-01T09:25:04.781Z,6.80
2019-04-01T09:27:32.939Z,7.07
2019-04-01T09:30:00.983Z,5.90
2019-04-01T09:32:29.124Z,7.47
2019-04-01T09:34:57.750Z,5.65
2019-04-01T09:37:25.873Z,7.62
2019-04-01T09:39:53.903Z,5.53
2019-04-01T09:42:22.112Z,12.68
2019-04-01T09:44:49.973Z,6.87
2019-04-01T09:47:18.235Z,6.90
2019-04-01T09:49:45.792Z,4.75
2019-04-01T09:52:14.105Z,7.40
2019-04-01T09:54:42.725Z,6.43
2019-04-01T09:57:17.179Z,5.75
2019-04-01T09:59:38.783Z,7.43
2019-04-01T10:02:06.963Z,6.25
2019-04-01T10:04:35.551Z,4.20
2019-04-01T10:07:03.630Z,9.50
2019-04-01T10:09:31.707Z,7.60
2019-04-01T10:11:59.878Z,8.93
2019-04-01T10:14:28.059Z,4.55
2019-04-01T10:16:56.037Z,8.00
2019-04-01T10:19:24.587Z,7.15
2019-04-01T10:21:52.781Z,7.45
2019-04-01T10:24:20.851Z,7.32
2019-04-01T10:26:50.856Z,5.75
2019-04-01T10:29:18.982Z,7.05
2019-04-01T10:31:47.123Z,8.45
2019-04-01T10:34:15.193Z,9.45
2019-04-01T10:36:43.258Z,7.12
2019-04-01T10:39:11.446Z,6.82
2019-04-01T10:41:39.486Z,4.62
2019-04-01T10:44:07.639Z,5.45
2019-04-01T10:46:35.514Z,7.07
2019-04-01T10:49:04.220Z,4.78
2019-04-01T10:51:32.071Z,12.68
2019-04-01T10:53:59.621Z,7.18
2019-04-01T10:56:27.646Z,7.60
2019-04-01T10:58:55.120Z,7.35
2019-04-01T11:01:23.645Z,5.47
2019-04-01T11:03:51.945Z,6.18
2019-04-01T11:06:20.418Z,7.47
2019-04-01T11:08:48.613Z,8.55
2019-04-01T11:11:16.683Z,7.57
2019-04-01T11:13:45.536Z,6.03
2019-04-01T11:16:13.341Z,7.65
2019-04-01T11:18:41.375Z,7.20
2019-04-01T11:21:09.465Z,9.23
2019-04-01T11:23:37.526Z,5.50
2019-04-01T11:26:06.336Z,5.45
2019-04-01T11:28:34.812Z,9.13
2019-04-01T11:31:02.587Z,8.02
2019-04-01T11:33:30.640Z,7.95
2019-04-01T11:35:58.826Z,7.18
2019-04-01T11:38:26.981Z,5.10
2019-04-01T11:40:55.081Z,6.25
2019-04-01T11:43:23.658Z,6.60
2019-04-01T11:45:51.375Z,8.32
2019-04-01T11:48:19.523Z,5.10
2019-04-01T11:50:47.918Z,7.07
2019-04-01T11:53:15.209Z,7.43
2019-04-01T11:55:42.966Z,4.72
2019-04-01T11:58:10.831Z,4.80
2019-04-01T12:00:38.683Z,3.92
2019-04-01T12:03:06.645Z,6.93
2019-04-01T12:05:35.048Z,7.37
2019-04-01T12:08:03.130Z,6.78
2019-04-01T12:10:31.197Z,7.00
2019-04-01T12:13:00.157Z,9.05
2019-04-01T12:15:27.897Z,7.10
2019-04-01T12:17:55.401Z,10.27
2019-04-01T12:20:24.393Z,10.30
2019-04-01T12:22:51.851Z,3.97
2019-04-01T12:25:19.627Z,6.68
2019-04-01T12:27:47.965Z,8.63
2019-04-01T12:30:15.761Z,7.82
2019-04-01T12:32:43.928Z,6.90
2019-04-01T12:35:12.018Z,6.28
2019-04-01T12:37:40.037Z,7.43
2019-04-01T12:40:07.836Z,5.55
2019-04-01T12:42:35.935Z,6.72
2019-04-01T12:45:04.164Z,5.60
2019-04-01T12:47:32.745Z,5.82
2019-04-01T12:50:01.204Z,7.03
2019-04-01T12:52:29.002Z,7.05
2019-04-01T12:55:00.792Z,8.90
2019-04-01T12:57:26.375Z,6.85
2019-04-01T12:59:54.916Z,5.90
2019-04-01T13:02:22.710Z,5.62
2019-04-01T13:04:51.652Z,4.78
2019-04-01T13:07:20.642Z,10.38
2019-04-01T13:09:47.765Z,4.90
2019-04-01T13:12:15.605Z,7.18
2019-04-01T13:14:43.808Z,6.70
2019-04-01T13:17:11.789Z,5.50
2019-04-01T13:19:40.623Z,7.80
2019-04-01T13:22:09.208Z,9.90
2019-04-01T13:24:36.515Z,5.72
2019-04-01T13:27:04.580Z,6.32
2019-04-01T13:29:32.641Z,7.82
2019-04-01T13:32:00.889Z,5.68
2019-04-01T13:34:28.668Z,9.90
2019-04-01T13:36:56.754Z,8.93
2019-04-01T13:39:25.328Z,7.55
2019-04-01T13:41:56.214Z,7.18
2019-04-01T13:44:35.654Z,7.12
2019-04-01T13:46:50.690Z,7.50
2019-04-01T13:49:18.396Z,6.45
2019-04-01T13:51:46.513Z,8.45
2019-04-01T13:54:14.562Z,8.57
2019-04-01T13:56:43.081Z,7.85
2019-04-01T13:59:12.207Z,7.93
2019-04-01T14:01:38.895Z,7.85
2019-04-01T14:04:07.069Z,8.35
2019-04-01T14:06:35.039Z,7.97
2019-04-01T14:09:02.537Z,8.57
2019-04-01T14:11:30.362Z,7.45
2019-04-01T14:13:58.550Z,8.93
2019-04-01T14:16:26.746Z,10.52
2019-04-01T14:18:55.209Z,11.18
2019-04-01T14:21:23.469Z,6.62
2019-04-01T14:23:51.215Z,9.00
2019-04-01T14:26:18.979Z,10.48
2019-04-01T14:28:47.080Z,7.40
2019-04-01T14:31:15.209Z,10.55
2019-04-01T14:33:43.341Z,8.63
2019-04-01T14:36:11.165Z,9.25
2019-04-01T14:38:39.239Z,7.53
2019-04-01T14:41:07.336Z,10.13
2019-04-01T14:43:35.061Z,7.20
2019-04-01T14:46:03.254Z,6.57
2019-04-01T14:48:31.614Z,11.45
2019-04-01T14:50:59.684Z,8.88
2019-04-01T14:53:27.758Z,8.07
2019-04-01T14:55:56.258Z,8.75
2019-04-01T14:58:24.321Z,9.07
2019-04-01T15:00:52.089Z,10.10
2019-04-01T15:03:20.195Z,9.63
2019-04-01T15:05:49.150Z,8.23
2019-04-01T15:08:19.380Z,7.60
2019-04-01T15:10:45.119Z,9.10
2019-04-01T15:13:12.873Z,5.65
2019-04-01T15:15:41.377Z,9.10
2019-04-01T15:18:10.001Z,8.43
2019-04-01T15:20:37.490Z,10.18
2019-04-01T15:23:06.000Z,10.45
2019-04-01T15:25:34.451Z,7.47
2019-04-01T15:28:02.456Z,9.30
2019-04-01T15:30:31.985Z,7.15
2019-04-01T15:32:58.515Z,8.95
2019-04-01T15:35:26.727Z,7.22
2019-04-01T15:37:54.799Z,7.55
2019-04-01T15:40:22.896Z,8.18
2019-04-01T15:42:50.930Z,7.50
2019-04-01T15:45:18.797Z,11.70
2019-04-01T15:47:47.107Z,8.63
2019-04-01T15:50:27.844Z,9.82
2019-04-01T15:52:43.741Z,6.90
2019-04-01T15:55:11.910Z,7.68
2019-04-01T15:57:39.760Z,9.70
2019-04-01T16:00:08.429Z,8.77
2019-04-01T16:02:36.611Z,9.48
2019-04-01T16:05:05.917Z,9.18
2019-04-01T16:07:32.775Z,9.85
2019-04-01T16:10:01.608Z,7.93
2019-04-01T16:12:29.427Z,7.28
2019-04-01T16:14:57.611Z,8.55
2019-04-01T16:17:25.981Z,6.72
2019-04-01T16:19:54.550Z,8.65
2019-04-01T16:22:22.429Z,7.10
2019-04-01T16:24:50.503Z,8.18
2019-04-01T16:27:18.941Z,6.10
2019-04-01T16:29:46.956Z,6.12
2019-04-01T16:32:14.817Z,8.35
2019-04-01T16:34:43.349Z,7.37
2019-04-01T16:37:11.372Z,8.35
2019-04-01T16:39:39.801Z,6.50
2019-04-01T16:42:07.937Z,9.10
2019-04-01T16:44:36.029Z,8.18
2019-04-01T16:47:04.501Z,10.18
2019-04-01T16:49:32.695Z,7.97
2019-04-01T16:52:00.656Z,9.02
2019-04-01T16:54:28.694Z,8.45
2019-04-01T16:56:56.757Z,7.45
2019-04-01T16:59:24.798Z,9.27
2019-04-01T17:01:52.661Z,11.10
2019-04-01T17:04:20.233Z,10.10
2019-04-01T17:06:47.997Z,8.52
2019-04-01T17:09:16.498Z,9.98
2019-04-01T17:11:45.400Z,12.52
2019-04-01T17:14:13.133Z,7.00
2019-04-01T17:16:41.515Z,8.50
2019-04-01T17:19:09.708Z,7.60
2019-04-01T17:21:37.761Z,9.75
2019-04-01T17:24:05.849Z,8.73
2019-04-01T17:26:44.895Z,10.52
2019-04-01T17:29:12.759Z,12.37
2019-04-01T17:31:40.488Z,7.82
2019-04-01T17:34:08.379Z,10.25
2019-04-01T17:36:36.561Z,8.30
2019-04-01T17:39:05.515Z,7.10
2019-04-01T17:41:33.597Z,9.82
2019-04-01T17:44:01.960Z,10.27
2019-04-01T17:46:30.118Z,9.25
2019-04-01T17:48:57.595Z,10.40
2019-04-01T17:51:26.047Z,12.18
2019-04-01T17:53:53.451Z,13.80
2019-04-01T17:56:22.096Z,9.13
2019-04-01T17:58:50.625Z,10.10
2019-04-01T18:01:18.800Z,11.20
2019-04-01T18:03:46.854Z,10.25
2019-04-01T18:06:14.973Z,8.75
2019-04-01T18:08:42.961Z,11.07
2019-04-01T18:11:10.754Z,9.88
2019-04-01T18:13:39.437Z,11.75
2019-04-01T18:16:08.091Z,10.23
2019-04-01T18:18:36.244Z,11.38
2019-04-01T18:21:04.783Z,11.70
2019-04-01T18:23:32.844Z,11.27
2019-04-01T18:26:00.960Z,13.90
2019-04-01T18:28:29.792Z,10.73
2019-04-01T18:30:57.937Z,13.77
2019-04-01T18:33:26.612Z,12.00
2019-04-01T18:35:54.659Z,12.15
2019-04-01T18:38:22.765Z,11.80
2019-04-01T18:40:50.921Z,14.05
2019-04-01T18:43:19.266Z,11.02
2019-04-01T18:45:47.019Z,13.30
2019-04-01T18:48:15.215Z,11.23
2019-04-01T18:50:43.536Z,14.93
2019-04-01T18:53:11.930Z,9.73
2019-04-01T18:55:40.278Z,12.00
2019-04-01T18:58:08.512Z,10.00
2019-04-01T19:00:36.675Z,13.57
2019-04-01T19:03:05.294Z,13.95
2019-04-01T19:05:33.274Z,12.82
2019-04-01T19:08:00.996Z,13.50
2019-04-01T19:10:29.565Z,16.27
2019-04-01T19:13:05.784Z,11.95
2019-04-01T19:15:26.696Z,14.70
2019-04-01T19:17:54.250Z,12.57
2019-04-01T19:20:22.501Z,11.63
2019-04-01T19:22:50.682Z,12.65
2019-04-01T19:25:18.723Z,13.52
2019-04-01T19:27:47.023Z,10.90
2019-04-01T19:30:15.352Z,13.05
2019-04-01T19:32:43.162Z,16.02
2019-04-01T19:35:11.111Z,13.30
2019-04-01T19:37:39.299Z,15.05
2019-04-01T19:40:07.368Z,12.50
2019-04-01T19:42:35.114Z,14.32
2019-04-01T19:45:03.192Z,9.88
2019-04-01T19:47:31.053Z,12.52
2019-04-01T19:49:59.042Z,13.62
2019-04-01T19:52:27.134Z,12.90
2019-04-01T19:54:55.350Z,9.75
2019-04-01T19:57:23.853Z,15.20
2019-04-01T19:59:51.926Z,11.60
2019-04-01T20:02:19.994Z,11.85
2019-04-01T20:04:48.395Z,10.25
2019-04-01T20:07:16.566Z,11.30
2019-04-01T20:09:46.241Z,10.00
2019-04-01T20:12:12.495Z,11.98
2019-04-01T20:14:40.567Z,10.00
2019-04-01T20:17:10.145Z,11.48
2019-04-01T20:19:37.076Z,12.05
2019-04-01T20:22:05.753Z,14.80
2019-04-01T20:24:33.840Z,9.90
2019-04-01T20:27:02.250Z,14.32
2019-04-01T20:29:30.387Z,12.55
2019-04-01T20:31:58.603Z,13.70
2019-04-01T20:34:26.782Z,13.60
2019-04-01T20:36:54.942Z,10.55
2019-04-01T20:39:23.029Z,10.63
2019-04-01T20:41:51.951Z,11.93
2019-04-01T20:44:20.654Z,10.88
2019-04-01T20:46:49.198Z,13.25
2019-04-01T20:49:17.911Z,12.15
2019-04-01T20:51:46.008Z,11.95
2019-04-01T20:54:15.164Z,13.32
2019-04-01T20:56:42.621Z,12.88
2019-04-01T20:59:11.131Z,12.70
2019-04-01T21:01:39.307Z,11.30
2019-04-01T21:04:08.400Z,14.48
2019-04-01T21:06:36.515Z,14.05
2019-04-01T21:09:06.726Z,13.93
2019-04-01T21:11:34.859Z,11.43
2019-04-01T21:14:03.233Z,13.93
2019-04-01T21:16:31.343Z,12.18
2019-04-01T21:18:59.702Z,12.43
2019-04-01T21:21:27.527Z,13.98
2019-04-01T21:23:55.697Z,11.93
2019-04-01T21:26:24.016Z,13.75
2019-04-01T21:28:52.226Z,12.77
2019-04-01T21:31:20.377Z,13.07
2019-04-01T21:33:48.915Z,11.80
2019-04-01T21:36:16.845Z,15.43
2019-04-01T21:38:45.139Z,12.75
2019-04-01T21:41:13.387Z,15.65
2019-04-01T21:43:41.581Z,14.98
2019-04-01T21:46:09.607Z,10.95
2019-04-01T21:48:39.038Z,14.77
2019-04-01T21:51:05.824Z,13.77
2019-04-01T21:53:33.563Z,12.02
2019-04-01T21:56:01.623Z,13.10
2019-04-01T21:58:29.774Z,14.45
2019-04-01T22:00:58.977Z,12.73
2019-04-01T22:03:27.113Z,12.05
2019-04-01T22:05:55.289Z,14.63
2019-04-01T22:08:23.126Z,15.80
2019-04-01T22:10:53.180Z,16.58
2019-04-01T22:13:21.825Z,14.25
2019-04-01T22:15:50.165Z,13.32
2019-04-01T22:18:18.069Z,15.38
2019-04-01T22:20:46.326Z,12.60
2019-04-01T22:23:14.173Z,13.35
2019-04-01T22:25:42.290Z,15.07
2019-04-01T22:28:10.353Z,14.77
2019-04-01T22:30:39.056Z,12.98
2019-04-01T22:33:07.874Z,15.23
2019-04-01T22:35:38.871Z,12.85
2019-04-01T22:38:06.233Z,15.52
2019-04-01T22:40:32.893Z,13.18
2019-04-01T22:43:01.136Z,14.82
2019-04-01T22:45:29.012Z,12.52
2019-04-01T22:47:57.200Z,12.82
2019-04-01T22:50:25.316Z,16.65
2019-04-01T22:52:53.194Z,14.48
2019-04-01T22:55:21.170Z,11.60
2019-04-01T22:57:49.425Z,14.05
2019-04-01T23:00:18.500Z,13.32
2019-04-01T23:02:45.702Z,12.65
2019-04-01T23:05:13.857Z,13.05
2019-04-01T23:07:41.925Z,9.98
2019-04-01T23:10:09.777Z,11.12
2019-04-01T23:12:37.818Z,11.52
2019-04-01T23:15:06.018Z,11.60
2019-04-01T23:17:34.199Z,17.27
2019-04-01T23:20:03.345Z,13.75
2019-04-01T23:22:31.266Z,15.10
2019-04-01T23:24:59.636Z,12.93
2019-04-01T23:27:27.746Z,13.23
2019-04-01T23:29:55.593Z,13.57
2019-04-01T23:32:23.352Z,14.77
2019-04-01T23:34:51.612Z,10.05
2019-04-01T23:37:19.705Z,13.68
2019-04-01T23:39:47.785Z,15.93
2019-04-01T23:42:15.937Z,14.20
2019-04-01T23:44:44.504Z,14.48
2019-04-01T23:47:12.585Z,15.85
2019-04-01T23:49:40.839Z,11.23
2019-04-01T23:52:08.533Z,11.82
2019-04-01T23:54:36.487Z,14.90
2019-04-01T23:57:04.580Z,11.60
2019-04-01T23:59:32.321Z,15.68
